Shields, North Dakota
Current Conditions -  °F | °C
As of 1:35 PM on Friday 21 Nov 2014 (Local Time) from KY19 Reporting Station
Clear Clear  
Wind Chill: 39°   Ceiling: Unl
Heat Index: 45°   Visibility: 10mi
Dew Point: 30°   Wind: 10mph
Humidity: 57%   Direction: 240°WSW
Pressure: 29.7"   Gusts: 18mph
Location:  46.23°N, 101.13°W
Report Text: KY19 212035Z AUTO 24009G16KT 10SM CLR 07/M01 A2970 RMK AO2
Loading
Personal Weather Stations






























Interactive Weather Map New forecast layout! Learn more

10-Day Weather Forecast

Advertisements
Track Severe Weather on mobile